Time;durP1;ratioP1;P1;durP2;ratioP2;P2;SDS_P1;SDS_P2;PMS_P1;PMS_P2;Temp;Humidity;BMP_temperature;BMP_pressure;BME280_temperature;BME280_humidity;BME280_pressure;Samples;Min_cycle;Max_cycle;Signal;HPM_P1;HPM_P2
2022/03/31 00:08:07;;;;;;;1.08;0.30;;;;;;;;;;20208226;29;20487;-86
2022/03/31 00:18:10;;;;;;;0.22;0.20;;;;;;;;;;20209581;29;20055;-84
2022/03/31 00:28:13;;;;;;;0.20;0.20;;;;;;;;;;20207601;29;20045;-86
2022/03/31 00:38:15;;;;;;;0.98;0.40;;;;;;;;;;20192302;29;20167;-85
2022/03/31 00:48:18;;;;;;;1.02;0.30;;;;;;;;;;20169530;29;20049;-86
2022/03/31 00:58:20;;;;;;;0.70;0.30;;;;;;;;;;20168939;29;20065;-84
2022/03/31 01:08:22;;;;;;;0.43;0.10;;;;;;;;;;20203665;29;20052;-85
2022/03/31 01:18:25;;;;;;;1.67;0.32;;;;;;;;;;20181209;29;20049;-84
2022/03/31 01:28:26;;;;;;;0.40;0.10;;;;;;;;;;20217240;29;20427;-85
2022/03/31 01:38:30;;;;;;;1.13;0.43;;;;;;;;;;20207444;29;20105;-85
2022/03/31 01:48:32;;;;;;;0.65;0.20;;;;;;;;;;20201641;29;20143;-86
2022/03/31 01:58:34;;;;;;;0.30;0.20;;;;;;;;;;20235024;29;20057;-85
2022/03/31 02:08:35;;;;;;;0.22;0.20;;;;;;;;;;20238259;29;20053;-87
2022/03/31 02:18:37;;;;;;;1.33;0.40;;;;;;;;;;20224416;29;20500;-86
2022/03/31 02:28:39;;;;;;;0.77;0.40;;;;;;;;;;20211355;29;20059;-87
2022/03/31 02:38:41;;;;;;;0.45;0.30;;;;;;;;;;20194276;29;20146;-86
2022/03/31 02:48:42;;;;;;;1.10;0.30;;;;;;;;;;20231389;29;20131;-86
2022/03/31 02:58:44;;;;;;;0.40;0.40;;;;;;;;;;20242478;29;20526;-86
2022/03/31 03:08:46;;;;;;;0.95;0.50;;;;;;;;;;20188715;29;20048;-87
2022/03/31 03:18:48;;;;;;;0.52;0.35;;;;;;;;;;20172400;29;20061;-86
2022/03/31 03:28:50;;;;;;;0.30;0.30;;;;;;;;;;20190967;29;20056;-86
2022/03/31 03:38:51;;;;;;;1.50;0.40;;;;;;;;;;20174585;29;20059;-87
2022/03/31 03:48:54;;;;;;;0.40;0.32;;;;;;;;;;20189303;29;20049;-87
2022/03/31 03:58:56;;;;;;;0.40;0.40;;;;;;;;;;20172375;29;20140;-86
2022/03/31 04:08:58;;;;;;;0.55;0.45;;;;;;;;;;20172711;29;20052;-87
2022/03/31 04:18:59;;;;;;;0.73;0.40;;;;;;;;;;20207638;29;20053;-87
2022/03/31 04:29:01;;;;;;;0.30;0.30;;;;;;;;;;20209338;29;20419;-87
2022/03/31 04:39:03;;;;;;;0.50;0.30;;;;;;;;;;20225549;29;20132;-87
2022/03/31 04:49:05;;;;;;;0.70;0.43;;;;;;;;;;20204614;29;20478;-85
2022/03/31 04:59:07;;;;;;;0.30;0.30;;;;;;;;;;20187117;29;20452;-85
2022/03/31 05:09:08;;;;;;;0.47;0.30;;;;;;;;;;20186087;29;20131;-85
2022/03/31 05:19:11;;;;;;;0.28;0.28;;;;;;;;;;20169508;29;20064;-86
2022/03/31 05:29:13;;;;;;;2.45;0.60;;;;;;;;;;20165270;29;20051;-87
2022/03/31 05:39:16;;;;;;;0.70;0.40;;;;;;;;;;20200588;29;20500;-88
2022/03/31 05:49:17;;;;;;;0.70;0.30;;;;;;;;;;20199747;29;20046;-89
2022/03/31 05:59:19;;;;;;;0.52;0.52;;;;;;;;;;20182595;29;20152;-89
2022/03/31 06:09:21;;;;;;;0.30;0.30;;;;;;;;;;20181323;29;20401;-88
2022/03/31 06:19:22;;;;;;;0.38;0.30;;;;;;;;;;20197074;29;20063;-89
2022/03/31 06:29:27;;;;;;;0.30;0.30;;;;;;;;;;20196320;29;20052;-88
2022/03/31 06:39:29;;;;;;;0.47;0.30;;;;;;;;;;20179457;29;20065;-89
2022/03/31 06:49:31;;;;;;;0.30;0.30;;;;;;;;;;20181987;29;20045;-89
2022/03/31 06:59:33;;;;;;;0.20;0.20;;;;;;;;;;20193974;29;20072;-87
2022/03/31 07:09:35;;;;;;;0.30;0.30;;;;;;;;;;20176643;29;20053;-87
2022/03/31 07:19:37;;;;;;;0.40;0.40;;;;;;;;;;20160558;29;20440;-88
2022/03/31 07:29:39;;;;;;;0.20;0.20;;;;;;;;;;20175103;29;20499;-89
2022/03/31 07:39:45;;;;;;;0.47;0.40;;;;;;;;;;20190177;29;20135;-88
2022/03/31 07:49:49;;;;;;;0.40;0.40;;;;;;;;;;20190276;29;20389;-88
2022/03/31 07:59:51;;;;;;;0.43;0.40;;;;;;;;;;20189845;29;20084;-88
2022/03/31 08:09:52;;;;;;;0.40;0.40;;;;;;;;;;20172352;29;20052;-87
2022/03/31 08:19:54;;;;;;;0.40;0.40;;;;;;;;;;20172093;29;20144;-88
2022/03/31 08:29:56;;;;;;;0.52;0.43;;;;;;;;;;20156437;29;20041;-89
2022/03/31 08:39:58;;;;;;;0.60;0.50;;;;;;;;;;20171231;29;20040;-88
2022/03/31 08:50:00;;;;;;;0.65;0.60;;;;;;;;;;20187125;29;20147;-88
2022/03/31 09:00:02;;;;;;;0.88;0.73;;;;;;;;;;20193490;29;20399;-89
2022/03/31 09:10:09;;;;;;;0.50;0.50;;;;;;;;;;20185247;29;20076;-89
2022/03/31 09:20:10;;;;;;;0.85;0.52;;;;;;;;;;20201655;29;20045;-89
2022/03/31 09:30:12;;;;;;;0.30;0.30;;;;;;;;;;20184244;29;20053;-90
2022/03/31 09:40:15;;;;;;;0.45;0.45;;;;;;;;;;20200236;29;20411;-89
2022/03/31 09:50:19;;;;;;;0.75;0.65;;;;;;;;;;20199271;29;20100;-89
2022/03/31 10:00:22;;;;;;;1.25;0.60;;;;;;;;;;20182009;29;20064;-89
2022/03/31 10:10:24;;;;;;;0.43;0.40;;;;;;;;;;20180443;29;20052;-89
2022/03/31 10:20:26;;;;;;;0.68;0.57;;;;;;;;;;20180818;29;20056;-89
2022/03/31 10:30:28;;;;;;;0.38;0.38;;;;;;;;;;20180633;29;20072;-89
2022/03/31 10:40:38;;;;;;;0.40;0.40;;;;;;;;;;20179325;29;20081;-89
2022/03/31 10:50:42;;;;;;;0.43;0.40;;;;;;;;;;20178499;29;20483;-88
2022/03/31 11:00:46;;;;;;;0.50;0.50;;;;;;;;;;20162674;29;20052;-88
2022/03/31 11:10:49;;;;;;;0.40;0.40;;;;;;;;;;20177940;29;20060;-89
2022/03/31 11:21:01;;;;;;;0.50;0.50;;;;;;;;;;20174732;29;20523;-88
2022/03/31 11:31:10;;;;;;;0.50;0.50;;;;;;;;;;20160105;29;20083;-88
2022/03/31 11:41:12;;;;;;;0.60;0.50;;;;;;;;;;20159367;29;20097;-88
2022/03/31 11:51:15;;;;;;;0.50;0.50;;;;;;;;;;20158479;29;20081;-89
2022/03/31 12:01:20;;;;;;;0.68;0.68;;;;;;;;;;20158260;29;20049;-89
2022/03/31 12:11:22;;;;;;;0.60;0.60;;;;;;;;;;20172148;29;20060;-88
2022/03/31 12:21:26;;;;;;;0.68;0.68;;;;;;;;;;20172123;29;20048;-89
2022/03/31 12:31:30;;;;;;;0.90;0.70;;;;;;;;;;20171150;29;20140;-88
2022/03/31 12:41:34;;;;;;;0.90;0.80;;;;;;;;;;20171188;29;20100;-89
2022/03/31 12:51:50;;;;;;;1.10;1.00;;;;;;;;;;20187276;29;20053;-89
2022/03/31 13:01:58;;;;;;;1.45;1.30;;;;;;;;;;20187142;29;20143;-88
2022/03/31 13:12:02;;;;;;;1.30;1.20;;;;;;;;;;20170235;29;20061;-89
2022/03/31 13:22:05;;;;;;;2.08;1.50;;;;;;;;;;20153990;29;20112;-88
2022/03/31 13:32:08;;;;;;;1.23;1.10;;;;;;;;;;20154128;29;20059;-88
2022/03/31 13:42:11;;;;;;;1.55;1.40;;;;;;;;;;20186416;29;20407;-88
2022/03/31 13:52:13;;;;;;;1.60;1.20;;;;;;;;;;20181346;29;20049;-88
2022/03/31 14:02:16;;;;;;;1.65;1.13;;;;;;;;;;20182068;29;20049;-89
2022/03/31 14:12:17;;;;;;;1.50;1.40;;;;;;;;;;20198003;29;20202;-87
2022/03/31 14:22:19;;;;;;;1.92;1.55;;;;;;;;;;20197374;29;20081;-89
2022/03/31 14:32:21;;;;;;;1.52;1.27;;;;;;;;;;20177407;29;20049;-89
2022/03/31 14:42:23;;;;;;;1.77;1.40;;;;;;;;;;20178897;29;20127;-87
2022/03/31 14:52:24;;;;;;;1.17;1.08;;;;;;;;;;20163385;29;20064;-89
2022/03/31 15:02:26;;;;;;;1.92;1.48;;;;;;;;;;20177692;29;20510;-89
2022/03/31 15:22:48;;;;;;;1.75;1.48;;;;;;;;;;20178944;29;20491;-89
2022/03/31 15:32:50;;;;;;;1.75;1.40;;;;;;;;;;20192257;29;20462;-90
2022/03/31 15:42:53;;;;;;;1.17;1.08;;;;;;;;;;20191385;29;20044;-89
2022/03/31 15:52:57;;;;;;;1.20;1.10;;;;;;;;;;20174037;29;20129;-90
2022/03/31 16:03:00;;;;;;;1.40;1.30;;;;;;;;;;20173196;29;20045;-89
2022/03/31 16:13:02;;;;;;;1.70;1.35;;;;;;;;;;20188394;29;20127;-89
2022/03/31 16:33:25;;;;;;;1.23;0.90;;;;;;;;;;20188402;29;20059;-89
2022/03/31 16:43:26;;;;;;;1.35;0.93;;;;;;;;;;20170951;29;20057;-86
2022/03/31 16:53:28;;;;;;;1.58;0.93;;;;;;;;;;20170911;29;20049;-88
2022/03/31 17:03:30;;;;;;;1.10;0.93;;;;;;;;;;20170530;29;20100;-82
2022/03/31 17:13:32;;;;;;;1.38;1.00;;;;;;;;;;20154793;29;20072;-84
2022/03/31 17:23:34;;;;;;;0.90;0.90;;;;;;;;;;20196120;29;20488;-83
2022/03/31 17:33:37;;;;;;;1.35;0.90;;;;;;;;;;20200990;29;20143;-85
2022/03/31 17:43:39;;;;;;;1.50;0.85;;;;;;;;;;20184799;29;20067;-86
2022/03/31 17:53:41;;;;;;;1.20;0.80;;;;;;;;;;20200040;29;20083;-85
2022/03/31 18:03:43;;;;;;;1.20;0.90;;;;;;;;;;20182693;29;20092;-89
2022/03/31 18:13:45;;;;;;;1.27;0.70;;;;;;;;;;20181701;29;20488;-86
2022/03/31 18:23:46;;;;;;;1.05;0.70;;;;;;;;;;20197540;29;20088;-86
2022/03/31 18:33:53;;;;;;;1.85;0.70;;;;;;;;;;20196197;29;20045;-85
2022/03/31 18:43:56;;;;;;;0.60;0.60;;;;;;;;;;20187784;29;20511;-85
2022/03/31 18:54:00;;;;;;;0.67;0.63;;;;;;;;;;20209125;29;20080;-84
2022/03/31 19:04:02;;;;;;;1.17;0.55;;;;;;;;;;20217202;29;20076;-86
2022/03/31 19:14:04;;;;;;;1.02;0.60;;;;;;;;;;20196306;29;20388;-84
2022/03/31 19:24:06;;;;;;;1.55;0.57;;;;;;;;;;20207041;29;20135;-87
2022/03/31 19:34:10;;;;;;;0.68;0.60;;;;;;;;;;20220979;29;20053;-85
2022/03/31 19:44:13;;;;;;;1.02;0.60;;;;;;;;;;20200733;29;20499;-85
2022/03/31 19:54:15;;;;;;;1.10;0.70;;;;;;;;;;20170374;29;20067;-85
2022/03/31 20:04:17;;;;;;;3.30;0.70;;;;;;;;;;20190147;29;20151;-86
2022/03/31 20:14:19;;;;;;;1.35;0.70;;;;;;;;;;20213151;29;20056;-84
2022/03/31 20:24:20;;;;;;;0.57;0.50;;;;;;;;;;20213538;29;20543;-84
2022/03/31 20:34:23;;;;;;;0.65;0.60;;;;;;;;;;20201605;29;20064;-86
2022/03/31 20:44:25;;;;;;;0.50;0.40;;;;;;;;;;20183297;29;20682;-84
2022/03/31 20:54:27;;;;;;;0.57;0.50;;;;;;;;;;20204910;29;20055;-85
2022/03/31 21:04:28;;;;;;;0.73;0.50;;;;;;;;;;20230301;29;20048;-85
2022/03/31 21:14:30;;;;;;;0.82;0.50;;;;;;;;;;20214178;29;20084;-86
2022/03/31 21:24:32;;;;;;;0.45;0.43;;;;;;;;;;20228707;29;20056;-86
2022/03/31 21:34:34;;;;;;;1.17;0.55;;;;;;;;;;20226845;29;20048;-86
2022/03/31 21:44:36;;;;;;;0.40;0.40;;;;;;;;;;20213193;29;20124;-86
2022/03/31 21:54:38;;;;;;;1.27;0.45;;;;;;;;;;20226096;29;20579;-85
2022/03/31 22:04:40;;;;;;;0.68;0.50;;;;;;;;;;20203037;29;20087;-84
2022/03/31 22:14:42;;;;;;;0.38;0.38;;;;;;;;;;20240236;29;20535;-84
2022/03/31 22:24:44;;;;;;;1.42;0.40;;;;;;;;;;20211378;29;20139;-84
2022/03/31 22:34:46;;;;;;;0.82;0.47;;;;;;;;;;20213080;29;20139;-86
2022/03/31 22:44:48;;;;;;;0.52;0.52;;;;;;;;;;20177301;29;20139;-86
2022/03/31 22:54:49;;;;;;;1.17;0.60;;;;;;;;;;20175149;29;20045;-86
2022/03/31 23:04:52;;;;;;;1.27;0.65;;;;;;;;;;20226358;29;20060;-85
2022/03/31 23:14:54;;;;;;;0.88;0.40;;;;;;;;;;20183006;29;20071;-86
2022/03/31 23:24:56;;;;;;;0.38;0.38;;;;;;;;;;20247990;29;20503;-86
2022/03/31 23:35:01;;;;;;;1.02;0.43;;;;;;;;;;20257290;29;20091;-85
2022/03/31 23:45:03;;;;;;;0.50;0.43;;;;;;;;;;20256758;29;20515;-85
2022/03/31 23:55:05;;;;;;;0.40;0.40;;;;;;;;;;20237904;29;20136;-86
